Time;durP1;ratioP1;P1;durP2;ratioP2;P2;SDS_P1;SDS_P2;PMS_P1;PMS_P2;Temp;Humidity;BMP_temperature;BMP_pressure;BME280_temperature;BME280_humidity;BME280_pressure;Samples;Min_cycle;Max_cycle;Signal;HPM_P1;HPM_P2
2022/02/17 00:01:41;;;;;;;14.07;2.67;;;13.50;82.00;;;;;;5024198;28;20232;-88
2022/02/17 00:04:06;;;;;;;13.50;3.10;;;13.50;81.20;;;;;;5049040;28;20205;-89
2022/02/17 00:06:38;;;;;;;10.30;2.90;;;13.70;81.30;;;;;;5048529;28;20190;-89
2022/02/17 00:42:46;;;;;;;20.75;3.42;;;13.80;76.30;;;;;;5042147;28;20809;-89
2022/02/17 00:45:12;;;;;;;17.57;3.90;;;13.80;76.40;;;;;;5022658;28;20170;-89
2022/02/17 00:47:37;;;;;;;22.17;4.20;;;13.80;76.30;;;;;;5037854;28;20165;-89
2022/02/17 00:50:04;;;;;;;13.63;4.33;;;13.70;75.50;;;;;;5020995;28;20178;-89
2022/02/17 00:52:29;;;;;;;12.70;3.85;;;13.70;75.20;;;;;;5004532;28;20190;-89
2022/02/17 00:54:55;;;;;;;25.80;4.20;;;13.80;74.70;;;;;;5037655;28;20178;-89
2022/02/17 00:57:21;;;;;;;26.57;6.70;;;13.70;74.20;;;;;;5019990;28;20182;-89
2022/02/17 00:59:46;;;;;;;22.40;3.70;;;13.70;74.20;;;;;;5020550;28;20177;-88
2022/02/17 01:02:12;;;;;;;19.53;5.10;;;13.60;74.00;;;;;;5025854;28;20909;-89
2022/02/17 01:04:38;;;;;;;22.03;4.13;;;13.60;73.90;;;;;;5028167;28;20224;-89
2022/02/17 01:07:04;;;;;;;16.57;5.70;;;13.60;73.30;;;;;;5022647;28;20417;-89
2022/02/17 01:09:55;;;;;;;18.98;4.32;;;13.50;72.80;;;;;;5037251;28;20182;-88
2022/02/17 01:12:21;;;;;;;11.57;3.78;;;13.50;72.40;;;;;;5019061;28;20186;-89
2022/02/17 01:14:46;;;;;;;19.97;3.90;;;13.50;72.10;;;;;;5018694;28;20209;-88
2022/02/17 01:17:12;;;;;;;17.33;3.93;;;13.50;71.60;;;;;;5019611;28;20859;-89
2022/02/17 01:19:38;;;;;;;23.27;4.77;;;13.50;71.30;;;;;;5019603;28;20182;-88
2022/02/17 01:22:04;;;;;;;10.03;4.20;;;13.40;71.10;;;;;;5036736;28;20194;-88
2022/02/17 01:24:29;;;;;;;20.73;4.18;;;13.20;71.70;;;;;;5020516;28;20255;-89
2022/02/17 01:26:55;;;;;;;28.63;5.67;;;13.20;70.50;;;;;;5022142;28;20177;-88
2022/02/17 01:29:21;;;;;;;18.23;4.90;;;13.30;70.50;;;;;;5021709;28;20540;-88
2022/02/17 01:31:46;;;;;;;19.83;5.23;;;13.20;70.70;;;;;;5042607;28;20178;-88
2022/02/17 01:34:12;;;;;;;33.10;6.93;;;13.20;70.90;;;;;;5025879;28;20677;-88
2022/02/17 01:36:38;;;;;;;21.60;4.23;;;13.20;70.60;;;;;;5025404;28;20240;-88
2022/02/17 01:39:04;;;;;;;26.63;6.97;;;13.20;70.30;;;;;;5028317;28;20229;-88
2022/02/17 01:41:30;;;;;;;25.07;5.43;;;13.20;70.10;;;;;;5004045;28;20211;-88
2022/02/17 01:44:02;;;;;;;26.50;5.00;;;13.30;70.00;;;;;;5017896;28;20220;-88
2022/02/17 01:46:42;;;;;;;15.68;5.00;;;13.30;69.90;;;;;;5050564;28;20178;-88
2022/02/17 01:49:09;;;;;;;26.67;4.30;;;13.20;69.10;;;;;;5036937;28;20248;-88
2022/02/17 01:51:35;;;;;;;34.08;5.78;;;13.00;69.00;;;;;;5018900;28;20216;-87
2022/02/17 01:54:05;;;;;;;18.95;4.50;;;13.10;69.00;;;;;;5017295;28;20213;-88
2022/02/17 01:56:34;;;;;;;24.95;5.07;;;13.10;68.70;;;;;;5018397;28;20611;-87
2022/02/17 01:59:04;;;;;;;30.00;6.25;;;13.10;68.20;;;;;;5028846;28;20285;-88
2022/02/17 02:01:30;;;;;;;16.38;5.32;;;13.10;68.10;;;;;;5013678;28;20261;-88
2022/02/17 02:03:56;;;;;;;17.55;5.20;;;13.10;67.80;;;;;;5035536;28;20252;-88
2022/02/17 02:06:22;;;;;;;19.20;5.10;;;13.10;68.20;;;;;;5036288;28;20174;-88
2022/02/17 02:08:47;;;;;;;22.13;5.20;;;13.10;67.80;;;;;;5017738;28;20253;-88
2022/02/17 02:11:13;;;;;;;20.00;5.90;;;13.00;67.50;;;;;;5018237;28;20174;-88
2022/02/17 02:13:39;;;;;;;16.67;4.87;;;13.10;67.50;;;;;;5017245;28;20194;-89
2022/02/17 02:16:06;;;;;;;20.40;5.30;;;13.00;67.50;;;;;;5035586;28;20504;-88
2022/02/17 02:18:33;;;;;;;22.52;5.63;;;12.90;67.10;;;;;;5036148;28;20416;-89
2022/02/17 02:21:02;;;;;;;23.20;5.43;;;12.90;67.20;;;;;;5011683;28;20213;-87
2022/02/17 02:23:27;;;;;;;25.95;5.80;;;12.90;67.20;;;;;;5002941;28;20276;-88
2022/02/17 02:25:53;;;;;;;19.03;5.07;;;12.90;67.30;;;;;;5020640;28;20213;-88
2022/02/17 02:28:25;;;;;;;28.10;6.27;;;12.80;66.90;;;;;;5035512;28;20963;-88
2022/02/17 02:30:52;;;;;;;27.52;5.47;;;12.80;66.80;;;;;;5035870;28;20178;-88
2022/02/17 02:33:19;;;;;;;36.50;7.10;;;12.80;66.90;;;;;;5017545;28;20202;-88
2022/02/17 02:35:45;;;;;;;32.05;5.38;;;12.80;66.90;;;;;;5018152;28;20182;-88
2022/02/17 02:38:12;;;;;;;25.90;6.95;;;12.70;67.20;;;;;;5017919;28;20178;-87
2022/02/17 02:40:38;;;;;;;31.58;6.55;;;12.70;67.20;;;;;;5035278;28;20177;-88
2022/02/17 02:43:04;;;;;;;18.02;5.18;;;12.70;67.40;;;;;;5017209;28;20717;-88
2022/02/17 02:45:31;;;;;;;22.60;5.43;;;12.70;67.20;;;;;;5035661;28;20202;-88
2022/02/17 02:47:57;;;;;;;24.75;5.45;;;12.60;66.60;;;;;;5035193;28;20181;-88
2022/02/17 02:50:24;;;;;;;31.55;7.10;;;12.60;66.40;;;;;;5017982;28;20673;-88
2022/02/17 02:52:49;;;;;;;15.50;5.22;;;12.60;66.50;;;;;;5017458;28;20697;-88
2022/02/17 02:55:15;;;;;;;32.27;6.80;;;12.60;66.70;;;;;;5017491;28;20186;-88
2022/02/17 02:57:41;;;;;;;24.00;5.30;;;12.60;66.70;;;;;;5017632;28;20554;-89
2022/02/17 03:00:08;;;;;;;28.73;5.77;;;12.60;66.80;;;;;;5018400;28;20284;-88
2022/02/17 03:02:33;;;;;;;21.67;5.30;;;12.50;66.30;;;;;;5022255;28;20467;-89
2022/02/17 03:04:59;;;;;;;30.87;5.80;;;12.50;66.40;;;;;;5041205;28;20193;-88
2022/02/17 03:07:25;;;;;;;38.67;6.97;;;12.50;66.60;;;;;;5022789;28;20413;-89
2022/02/17 03:09:51;;;;;;;29.65;5.90;;;12.40;66.10;;;;;;5022373;28;20219;-88
2022/02/17 03:12:17;;;;;;;30.50;6.57;;;12.50;66.50;;;;;;5023369;28;20253;-88
2022/02/17 03:14:43;;;;;;;28.80;6.03;;;12.50;66.30;;;;;;5030877;28;20202;-88
2022/02/17 03:17:09;;;;;;;24.37;6.07;;;12.50;65.80;;;;;;5026965;28;20181;-88
2022/02/17 03:19:35;;;;;;;30.70;6.30;;;12.40;65.80;;;;;;5017496;28;20425;-86
2022/02/17 03:22:01;;;;;;;28.13;5.73;;;12.40;66.00;;;;;;5017284;28;20228;-86
2022/02/17 03:24:27;;;;;;;26.35;6.35;;;12.30;66.10;;;;;;5017281;28;20220;-86
2022/02/17 03:26:53;;;;;;;24.53;6.93;;;12.30;66.20;;;;;;5035335;28;20186;-86
2022/02/17 03:29:19;;;;;;;24.67;6.07;;;12.20;66.30;;;;;;5017119;28;20174;-86
2022/02/17 03:31:44;;;;;;;28.92;6.82;;;12.10;66.50;;;;;;5035623;28;20177;-86
2022/02/17 03:34:10;;;;;;;24.67;5.00;;;12.10;66.40;;;;;;5017109;28;20231;-87
2022/02/17 03:36:36;;;;;;;30.93;6.80;;;12.00;66.40;;;;;;5017850;28;20413;-86
2022/02/17 03:39:03;;;;;;;27.80;5.97;;;11.90;66.90;;;;;;5018818;28;20196;-86
2022/02/17 03:41:29;;;;;;;27.92;6.30;;;11.90;67.20;;;;;;5028551;28;20201;-87
2022/02/17 03:43:55;;;;;;;31.70;7.28;;;11.90;67.30;;;;;;5023593;28;20232;-86
2022/02/17 03:46:21;;;;;;;43.43;7.80;;;12.00;68.20;;;;;;5018197;28;20174;-86
2022/02/17 03:48:46;;;;;;;31.67;6.43;;;11.40;68.40;;;;;;5017935;28;20173;-87
2022/02/17 03:51:12;;;;;;;32.63;6.30;;;12.00;68.60;;;;;;5018377;28;20515;-86
2022/02/17 03:53:38;;;;;;;40.10;7.30;;;11.90;68.20;;;;;;5035961;28;20230;-86
2022/02/17 03:56:04;;;;;;;25.80;5.17;;;12.00;67.90;;;;;;5047080;28;20412;-87
2022/02/17 04:01:14;;;;;;;30.30;5.30;;;11.90;67.20;;;;;;5035107;28;20527;-87
2022/02/17 04:03:48;;;;;;;19.63;6.40;;;11.90;67.10;;;;;;5017454;28;20228;-87
2022/02/17 04:06:13;;;;;;;21.35;5.50;;;11.90;67.00;;;;;;5017022;28;20170;-87
2022/02/17 04:08:39;;;;;;;25.07;6.57;;;12.00;68.00;;;;;;5017652;28;20174;-86
2022/02/17 04:11:05;;;;;;;28.30;6.33;;;12.00;67.50;;;;;;5020065;28;20626;-86
2022/02/17 04:13:30;;;;;;;27.03;6.27;;;11.90;67.40;;;;;;5019893;28;20213;-87
2022/02/17 04:15:56;;;;;;;41.80;7.90;;;12.00;67.50;;;;;;5036076;28;20158;-87
2022/02/17 04:18:22;;;;;;;36.33;6.63;;;12.10;67.70;;;;;;5017735;28;20730;-86
2022/02/17 04:20:48;;;;;;;24.33;6.17;;;12.00;67.70;;;;;;5019218;28;20170;-87
2022/02/17 04:23:14;;;;;;;39.40;7.63;;;12.00;68.00;;;;;;5019019;28;20213;-88
2022/02/17 04:25:40;;;;;;;34.77;7.50;;;12.00;68.00;;;;;;5035607;28;20335;-87
2022/02/17 04:28:06;;;;;;;33.00;6.10;;;12.00;68.20;;;;;;5039555;28;20185;-87
2022/02/17 04:30:31;;;;;;;45.10;7.27;;;12.20;67.90;;;;;;5027559;28;20174;-87
2022/02/17 04:33:01;;;;;;;26.43;6.37;;;12.10;67.80;;;;;;5026233;28;20229;-86
2022/02/17 04:35:27;;;;;;;25.77;6.40;;;12.00;68.00;;;;;;5023295;28;20450;-86
2022/02/17 04:37:52;;;;;;;30.13;6.37;;;12.00;68.20;;;;;;5020952;28;20368;-87
2022/02/17 04:40:18;;;;;;;42.30;7.77;;;12.10;68.70;;;;;;5020389;28;20561;-86
2022/02/17 04:43:02;;;;;;;24.20;5.83;;;12.20;68.30;;;;;;5017447;28;20300;-87
2022/02/17 04:45:28;;;;;;;46.50;8.45;;;12.20;68.60;;;;;;5018489;28;20413;-86
2022/02/17 04:47:54;;;;;;;47.37;7.73;;;12.10;68.60;;;;;;5019929;28;20185;-87
2022/02/17 04:50:20;;;;;;;27.38;6.75;;;12.10;68.00;;;;;;5019764;28;20209;-87
2022/02/17 04:52:46;;;;;;;32.70;6.43;;;12.10;69.30;;;;;;5019753;28;20271;-87
2022/02/17 04:55:12;;;;;;;38.33;6.57;;;12.00;68.60;;;;;;5019809;28;20177;-87
2022/02/17 04:57:37;;;;;;;42.27;8.00;;;12.00;68.00;;;;;;5019883;28;20186;-87
2022/02/17 05:00:03;;;;;;;33.40;7.93;;;12.20;68.70;;;;;;5003776;28;20200;-87
2022/02/17 05:02:29;;;;;;;31.73;8.15;;;11.90;68.00;;;;;;5003054;28;20202;-87
2022/02/17 05:04:55;;;;;;;54.43;9.33;;;12.10;68.00;;;;;;5019559;28;20197;-87
2022/02/17 05:07:21;;;;;;;24.80;6.03;;;12.00;68.10;;;;;;5019338;28;20748;-87
2022/02/17 05:09:47;;;;;;;27.40;8.60;;;12.00;68.80;;;;;;5019777;28;20917;-86
2022/02/17 05:12:12;;;;;;;31.63;7.87;;;12.00;69.50;;;;;;5037568;28;20204;-86
2022/02/17 05:14:38;;;;;;;57.43;7.80;;;12.00;69.30;;;;;;5004018;28;20205;-87
2022/02/17 05:17:04;;;;;;;34.60;7.77;;;12.00;68.40;;;;;;5018898;28;20174;-88
2022/02/17 05:19:30;;;;;;;30.67;8.03;;;12.00;68.10;;;;;;5019037;28;20420;-88
2022/02/17 05:21:56;;;;;;;38.50;8.20;;;11.90;69.10;;;;;;5019232;28;20471;-87
2022/02/17 05:24:21;;;;;;;25.70;6.90;;;12.00;68.10;;;;;;5019244;28;20456;-87
2022/02/17 05:27:06;;;;;;;36.33;8.97;;;11.90;68.60;;;;;;5037150;28;20182;-86
2022/02/17 05:29:32;;;;;;;29.80;8.02;;;11.90;67.90;;;;;;5037183;28;20246;-86
2022/02/17 05:31:57;;;;;;;27.57;6.90;;;11.60;67.70;;;;;;5019170;28;20543;-86
2022/02/17 05:34:23;;;;;;;27.27;6.50;;;12.00;67.70;;;;;;5019005;28;20206;-86
2022/02/17 05:36:49;;;;;;;34.10;9.50;;;11.90;67.80;;;;;;5036484;28;20650;-87
2022/02/17 05:39:14;;;;;;;33.03;8.37;;;11.90;67.60;;;;;;5036837;28;20440;-86
2022/02/17 05:41:40;;;;;;;37.37;8.20;;;11.90;68.00;;;;;;5018954;28;20201;-86
2022/02/17 05:44:06;;;;;;;30.03;7.67;;;11.80;68.00;;;;;;5018938;28;20193;-86
2022/02/17 05:46:32;;;;;;;24.07;5.67;;;11.80;67.60;;;;;;5019994;28;20181;-87
2022/02/17 05:48:59;;;;;;;28.15;7.38;;;11.80;67.20;;;;;;5018732;28;20529;-87
2022/02/17 05:51:25;;;;;;;25.27;5.85;;;11.80;66.80;;;;;;5023294;28;20279;-87
2022/02/17 05:53:50;;;;;;;20.03;6.60;;;11.80;66.20;;;;;;5045449;28;20320;-87
2022/02/17 05:56:16;;;;;;;38.63;7.80;;;11.70;65.90;;;;;;5019343;28;20413;-87
2022/02/17 05:58:42;;;;;;;35.63;7.43;;;11.80;66.20;;;;;;5022688;28;20227;-86
2022/02/17 06:01:08;;;;;;;33.97;8.53;;;11.80;65.80;;;;;;5022984;28;20413;-87
2022/02/17 06:03:33;;;;;;;39.73;7.47;;;11.80;66.00;;;;;;5023198;28;20271;-88
2022/02/17 06:05:59;;;;;;;27.53;7.67;;;11.70;65.70;;;;;;5021807;28;20212;-88
2022/02/17 06:08:47;;;;;;;36.90;8.40;;;11.70;65.90;;;;;;5022683;28;20273;-86
2022/02/17 06:11:12;;;;;;;29.63;7.22;;;11.70;65.90;;;;;;5019770;28;20166;-86
2022/02/17 06:13:38;;;;;;;28.43;6.60;;;11.70;65.90;;;;;;5036023;28;20244;-86
2022/02/17 06:16:04;;;;;;;40.27;6.93;;;11.70;66.00;;;;;;5018503;28;20178;-87
2022/02/17 06:18:30;;;;;;;30.87;6.90;;;11.60;65.60;;;;;;5018328;28;20174;-86
2022/02/17 06:20:55;;;;;;;41.03;8.50;;;11.60;65.40;;;;;;5017836;28;20170;-86
2022/02/17 06:23:21;;;;;;;34.30;7.50;;;11.60;65.20;;;;;;5017517;28;20221;-86
2022/02/17 06:25:47;;;;;;;21.90;6.30;;;11.70;65.10;;;;;;5017786;28;20173;-86
2022/02/17 06:28:13;;;;;;;45.75;7.47;;;11.60;64.40;;;;;;5019010;28;20177;-86
2022/02/17 06:30:43;;;;;;;34.42;7.18;;;11.50;64.30;;;;;;5035947;28;20178;-86
2022/02/17 06:33:09;;;;;;;25.55;6.07;;;11.50;63.90;;;;;;5035793;28;20202;-87
2022/02/17 06:35:58;;;;;;;33.38;6.45;;;11.50;63.80;;;;;;5036737;28;20197;-86
2022/02/17 06:38:26;;;;;;;34.80;7.65;;;11.60;63.50;;;;;;5018964;28;20196;-87
2022/02/17 06:40:52;;;;;;;27.20;5.93;;;11.60;63.30;;;;;;5018532;28;20181;-86
2022/02/17 06:43:37;;;;;;;27.55;6.47;;;11.50;63.20;;;;;;5018172;28;20236;-87
2022/02/17 06:46:04;;;;;;;28.42;6.20;;;11.50;63.70;;;;;;5018086;28;20177;-87
2022/02/17 06:48:29;;;;;;;32.85;5.35;;;11.50;63.60;;;;;;5018101;28;20271;-87
2022/02/17 06:50:57;;;;;;;24.67;5.27;;;11.60;63.40;;;;;;5018465;28;20186;-88
2022/02/17 06:53:23;;;;;;;24.95;4.88;;;11.50;63.00;;;;;;5016894;28;20448;-86
2022/02/17 06:55:49;;;;;;;30.60;7.50;;;11.50;63.00;;;;;;5017270;28;20182;-86
2022/02/17 06:58:16;;;;;;;30.50;7.33;;;11.50;63.20;;;;;;5017501;28;20571;-87
2022/02/17 07:00:42;;;;;;;31.50;6.90;;;11.50;63.10;;;;;;5034909;28;20688;-87
2022/02/17 07:03:08;;;;;;;30.30;7.47;;;11.50;63.10;;;;;;5034428;28;20214;-87
2022/02/17 07:05:48;;;;;;;30.00;7.03;;;11.50;63.40;;;;;;5017043;28;20177;-88
2022/02/17 07:08:14;;;;;;;25.73;5.50;;;11.50;63.30;;;;;;5016616;28;20804;-89
2022/02/17 07:10:55;;;;;;;38.00;6.50;;;11.50;63.30;;;;;;5035295;28;20186;-89
2022/02/17 07:13:27;;;;;;;26.00;6.43;;;11.40;63.20;;;;;;5034494;28;20205;-88
2022/02/17 07:15:55;;;;;;;30.75;6.65;;;11.40;63.60;;;;;;5034604;28;20216;-87
2022/02/17 07:18:21;;;;;;;36.15;7.88;;;11.40;63.90;;;;;;5035183;28;20547;-88
2022/02/17 07:21:00;;;;;;;20.38;6.20;;;11.40;64.20;;;;;;5016635;28;20193;-87
2022/02/17 07:23:26;;;;;;;18.02;6.65;;;11.30;64.70;;;;;;5018895;28;20255;-88
2022/02/17 07:25:52;;;;;;;28.03;7.27;;;11.30;64.70;;;;;;5043178;28;20182;-88
2022/02/17 07:28:22;;;;;;;44.90;7.50;;;11.20;64.60;;;;;;5020812;28;20482;-89
2022/02/17 07:30:49;;;;;;;32.97;7.10;;;11.30;64.80;;;;;;5019395;28;20181;-88
2022/02/17 07:33:16;;;;;;;39.45;7.20;;;11.30;64.30;;;;;;5019479;28;20288;-88
2022/02/17 07:35:42;;;;;;;38.30;8.55;;;11.20;64.20;;;;;;5018110;28;20256;-88
2022/02/17 07:38:08;;;;;;;34.60;6.03;;;11.20;64.30;;;;;;5020896;28;20556;-88
2022/02/17 07:40:35;;;;;;;28.15;6.28;;;11.20;64.50;;;;;;5019377;28;20412;-88
2022/02/17 07:43:01;;;;;;;30.27;6.05;;;11.20;64.50;;;;;;5024370;28;20217;-88
2022/02/17 07:45:27;;;;;;;38.47;7.22;;;11.20;64.20;;;;;;5035348;28;20166;-88
2022/02/17 07:47:54;;;;;;;24.20;6.83;;;11.20;64.20;;;;;;5013358;28;20185;-88
2022/02/17 07:50:25;;;;;;;45.60;7.65;;;11.10;63.80;;;;;;5013787;28;20178;-88
2022/02/17 07:52:50;;;;;;;35.25;6.93;;;11.20;63.70;;;;;;5033794;28;20262;-88
2022/02/17 07:55:16;;;;;;;23.77;5.30;;;11.20;63.80;;;;;;5015892;28;20272;-88
2022/02/17 07:57:42;;;;;;;22.03;5.87;;;11.20;63.90;;;;;;5016340;28;20416;-88
2022/02/17 08:00:11;;;;;;;31.60;7.40;;;11.10;63.60;;;;;;5016914;28;20227;-88
2022/02/17 08:02:37;;;;;;;22.42;6.65;;;11.10;63.50;;;;;;5036349;28;20452;-88
2022/02/17 08:05:03;;;;;;;31.15;6.18;;;11.10;63.60;;;;;;5037814;28;20387;-88
2022/02/17 08:07:31;;;;;;;31.73;7.30;;;11.10;63.20;;;;;;5035673;28;20193;-89
2022/02/17 08:09:57;;;;;;;30.50;6.22;;;11.10;63.10;;;;;;5016698;28;20205;-89
2022/02/17 08:12:24;;;;;;;35.72;6.30;;;11.10;63.20;;;;;;5016679;28;20495;-89
2022/02/17 08:14:49;;;;;;;28.80;6.07;;;11.10;62.90;;;;;;5016265;28;20182;-88
2022/02/17 08:17:15;;;;;;;28.33;4.60;;;11.10;62.90;;;;;;5034004;28;20231;-89
2022/02/17 08:19:41;;;;;;;19.73;5.17;;;11.10;62.70;;;;;;5002113;28;20425;-88
2022/02/17 08:22:06;;;;;;;26.23;4.97;;;11.10;62.50;;;;;;5023397;28;20698;-88
2022/02/17 08:24:32;;;;;;;20.77;5.73;;;11.10;62.40;;;;;;5041413;28;20186;-88
2022/02/17 08:26:59;;;;;;;25.10;5.03;;;11.30;62.00;;;;;;5025967;28;20193;-89
2022/02/17 08:29:26;;;;;;;30.27;4.43;;;11.20;62.10;;;;;;5019989;28;20223;-89
2022/02/17 08:31:52;;;;;;;25.95;5.60;;;11.20;62.00;;;;;;5020072;28;20186;-88
2022/02/17 08:34:18;;;;;;;38.70;6.15;;;11.30;62.20;;;;;;5037064;28;20270;-89
2022/02/17 08:36:44;;;;;;;25.25;4.75;;;11.20;61.80;;;;;;5038062;28;20205;-88
2022/02/17 08:39:10;;;;;;;16.27;4.37;;;11.30;61.70;;;;;;5039132;28;20646;-89
2022/02/17 08:41:37;;;;;;;22.70;4.60;;;11.20;61.50;;;;;;5022821;28;20538;-89
2022/02/17 08:44:06;;;;;;;23.77;4.90;;;11.30;61.20;;;;;;5026995;28;20478;-88
2022/02/17 08:46:33;;;;;;;26.63;3.83;;;11.40;61.20;;;;;;5025564;28;20229;-88
2022/02/17 08:48:59;;;;;;;16.80;4.22;;;11.50;60.70;;;;;;5037856;28;20201;-89
2022/02/17 08:51:29;;;;;;;26.67;4.70;;;11.50;60.40;;;;;;5019735;28;20182;-88
2022/02/17 08:53:58;;;;;;;14.55;4.15;;;11.40;59.40;;;;;;5037112;28;20437;-88
2022/02/17 08:56:24;;;;;;;24.38;4.45;;;11.30;59.60;;;;;;5020680;28;20252;-88
2022/02/17 08:58:50;;;;;;;35.15;6.95;;;11.30;60.00;;;;;;5022828;28;20189;-88
2022/02/17 09:01:19;;;;;;;15.82;3.83;;;11.40;60.00;;;;;;5037306;28;20603;-89
2022/02/17 09:03:45;;;;;;;12.80;4.50;;;11.50;60.00;;;;;;5018979;28;20194;-89
2022/02/17 09:06:11;;;;;;;18.30;3.87;;;11.50;60.10;;;;;;5021161;28;20178;-89
2022/02/17 09:08:36;;;;;;;19.90;5.53;;;11.40;59.50;;;;;;5009029;28;20207;-88
2022/02/17 09:11:04;;;;;;;18.67;4.73;;;11.40;59.60;;;;;;5019036;28;20417;-89
2022/02/17 09:13:30;;;;;;;17.00;4.07;;;11.40;59.60;;;;;;5019974;28;20845;-88
2022/02/17 09:15:56;;;;;;;6.40;3.10;;;11.40;59.30;;;;;;5019230;28;20177;-88
2022/02/17 09:18:22;;;;;;;12.27;3.20;;;11.50;59.70;;;;;;5019172;28;20421;-89
2022/02/17 09:20:48;;;;;;;27.92;5.78;;;11.50;59.60;;;;;;5016988;28;20436;-87
2022/02/17 09:23:14;;;;;;;16.77;4.63;;;11.50;59.20;;;;;;5001080;28;20219;-88
2022/02/17 09:25:41;;;;;;;13.98;4.25;;;11.50;59.30;;;;;;5001055;28;20476;-88
2022/02/17 09:28:08;;;;;;;21.35;3.83;;;11.60;59.40;;;;;;4999747;28;20217;-88
2022/02/17 09:30:36;;;;;;;19.92;5.13;;;11.70;60.00;;;;;;4999253;28;20624;-88
2022/02/17 09:33:05;;;;;;;17.77;3.45;;;11.70;59.80;;;;;;4999146;28;20230;-88
2022/02/17 09:35:31;;;;;;;28.15;5.05;;;11.60;59.40;;;;;;5004202;28;20285;-89
2022/02/17 09:37:59;;;;;;;39.67;6.97;;;11.60;59.40;;;;;;4986609;28;20182;-88
2022/02/17 09:40:26;;;;;;;24.00;4.75;;;11.70;59.80;;;;;;4999418;28;20417;-88
2022/02/17 09:42:55;;;;;;;15.25;3.97;;;11.70;59.40;;;;;;5019706;28;20627;-88
2022/02/17 09:45:22;;;;;;;11.85;4.10;;;11.70;58.80;;;;;;5037202;28;20181;-89
2022/02/17 09:47:47;;;;;;;16.58;3.40;;;11.90;58.90;;;;;;5018058;28;20202;-89
2022/02/17 09:50:15;;;;;;;24.00;3.73;;;11.90;58.50;;;;;;5018516;28;20236;-89
2022/02/17 09:52:43;;;;;;;22.58;6.50;;;11.90;58.20;;;;;;5036057;28;20193;-89
2022/02/17 09:55:14;;;;;;;18.27;5.88;;;11.90;58.60;;;;;;5018665;28;20577;-88
2022/02/17 09:57:40;;;;;;;15.95;4.10;;;11.90;58.20;;;;;;5017819;28;20208;-88
2022/02/17 10:00:10;;;;;;;10.55;4.60;;;12.00;58.40;;;;;;5036279;28;20281;-88
2022/02/17 10:02:39;;;;;;;22.85;4.03;;;12.10;57.50;;;;;;5019013;28;20193;-88
2022/02/17 10:05:06;;;;;;;16.85;4.05;;;12.10;57.10;;;;;;5020159;28;20185;-88
2022/02/17 10:07:35;;;;;;;15.45;3.65;;;12.00;56.80;;;;;;5019285;28;20545;-89
2022/02/17 10:10:09;;;;;;;11.63;3.30;;;12.00;56.70;;;;;;5036562;28;20185;-89
2022/02/17 10:13:03;;;;;;;11.48;3.05;;;12.20;56.30;;;;;;5019231;28;20188;-89
2022/02/17 10:15:37;;;;;;;17.33;2.83;;;12.10;55.20;;;;;;5018310;28;20190;-88
2022/02/17 10:18:05;;;;;;;5.72;2.97;;;12.00;55.60;;;;;;5020541;28;20518;-87
2022/02/17 10:20:49;;;;;;;15.85;3.70;;;12.00;54.70;;;;;;5018977;28;20711;-88
2022/02/17 10:23:15;;;;;;;6.65;3.08;;;11.80;53.90;;;;;;5036604;28;20217;-88
2022/02/17 10:26:11;;;;;;;7.23;2.00;;;11.80;53.90;;;;;;5019256;28;20185;-88
2022/02/17 10:28:59;;;;;;;11.18;2.33;;;11.70;54.40;;;;;;5019278;28;20408;-88
2022/02/17 10:31:36;;;;;;;7.07;2.78;;;11.60;54.50;;;;;;5018941;28;20178;-88
2022/02/17 10:34:03;;;;;;;8.65;2.58;;;11.70;55.90;;;;;;5020967;28;20198;-88
2022/02/17 10:36:35;;;;;;;9.35;3.10;;;11.70;55.60;;;;;;5021095;28;20190;-88
2022/02/17 10:39:22;;;;;;;4.20;2.17;;;11.70;55.20;;;;;;5035392;28;20216;-88
2022/02/17 10:41:57;;;;;;;14.25;3.05;;;11.70;55.10;;;;;;5018131;28;20201;-88
2022/02/17 10:44:31;;;;;;;17.25;2.80;;;11.90;54.60;;;;;;5016436;28;20193;-88
2022/02/17 10:47:14;;;;;;;9.98;3.13;;;12.00;54.20;;;;;;5016846;28;20180;-88
2022/02/17 10:49:43;;;;;;;19.10;2.88;;;12.00;53.80;;;;;;5017800;28;20173;-88
2022/02/17 10:52:10;;;;;;;12.73;3.33;;;12.30;53.80;;;;;;5017491;28;20185;-88
2022/02/17 10:54:36;;;;;;;16.85;3.33;;;12.30;53.20;;;;;;5035130;28;20210;-88
2022/02/17 10:57:04;;;;;;;12.53;2.90;;;12.50;52.90;;;;;;5035269;28;20182;-87
2022/02/17 11:02:24;;;;;;;15.73;2.85;;;12.40;53.20;;;;;;5036077;28;20304;-88
2022/02/17 11:04:50;;;;;;;14.00;3.03;;;12.70;53.70;;;;;;5018978;28;20657;-88
2022/02/17 11:07:18;;;;;;;13.13;3.50;;;12.70;53.20;;;;;;5023793;28;20563;-88
2022/02/17 11:09:45;;;;;;;13.68;3.15;;;12.90;53.00;;;;;;5039886;28;20217;-89
2022/02/17 11:12:13;;;;;;;9.40;2.47;;;12.90;52.20;;;;;;5001319;28;20190;-88
2022/02/17 11:14:44;;;;;;;24.17;3.13;;;12.90;52.00;;;;;;5035305;28;20281;-88
2022/02/17 11:17:13;;;;;;;14.02;3.25;;;12.90;51.60;;;;;;5018461;28;20232;-88
2022/02/17 11:19:41;;;;;;;14.85;2.95;;;12.90;51.70;;;;;;5000971;28;20261;-88
2022/02/17 11:22:11;;;;;;;16.67;3.20;;;12.90;51.70;;;;;;5038777;28;20205;-88
2022/02/17 11:24:54;;;;;;;23.77;3.72;;;12.90;51.90;;;;;;5020771;28;20576;-88
2022/02/17 11:27:21;;;;;;;8.68;3.30;;;13.10;51.10;;;;;;5020776;28;20177;-88
2022/02/17 11:29:47;;;;;;;14.98;2.50;;;13.00;49.80;;;;;;5026067;28;20209;-89
2022/02/17 11:32:17;;;;;;;22.45;3.97;;;12.70;49.40;;;;;;5044543;28;20369;-88
2022/02/17 11:34:50;;;;;;;18.95;2.60;;;12.70;51.10;;;;;;5021965;28;20313;-88
2022/02/17 11:37:30;;;;;;;9.43;2.33;;;12.70;49.80;;;;;;5019093;28;20200;-88
2022/02/17 11:40:05;;;;;;;6.30;2.50;;;12.70;49.30;;;;;;5017256;28;20188;-88
2022/02/17 11:42:42;;;;;;;7.57;2.67;;;12.70;49.50;;;;;;5034862;28;20236;-89
2022/02/17 11:45:09;;;;;;;9.40;2.53;;;12.90;49.50;;;;;;5017490;28;20185;-88
2022/02/17 11:48:09;;;;;;;10.25;2.95;;;12.90;49.10;;;;;;5034874;28;20174;-88
2022/02/17 11:50:37;;;;;;;13.73;2.92;;;12.80;48.70;;;;;;4975921;28;20186;-88
2022/02/17 11:53:21;;;;;;;7.32;2.78;;;12.90;48.60;;;;;;5017979;28;20691;-89
2022/02/17 11:55:47;;;;;;;11.20;2.53;;;12.90;48.20;;;;;;5020375;28;20181;-89
2022/02/17 11:58:47;;;;;;;8.83;2.97;;;12.70;47.70;;;;;;5020799;28;20604;-89
2022/02/17 12:01:30;;;;;;;9.43;2.28;;;12.70;47.30;;;;;;5021182;28;20243;-88
2022/02/17 12:04:23;;;;;;;5.20;1.95;;;12.60;47.70;;;;;;5022705;28;20198;-88
2022/02/17 12:06:57;;;;;;;13.82;2.63;;;12.20;47.30;;;;;;5023513;28;20224;-88
2022/02/17 12:09:29;;;;;;;15.65;2.45;;;12.40;48.30;;;;;;5023950;28;20174;-88
2022/02/17 12:12:07;;;;;;;9.63;3.80;;;12.40;48.90;;;;;;5020460;28;20220;-88
2022/02/17 12:14:34;;;;;;;14.80;2.40;;;12.60;49.60;;;;;;5020481;28;20208;-88
2022/02/17 12:17:04;;;;;;;6.65;2.45;;;12.50;49.10;;;;;;5038521;28;20634;-88
2022/02/17 12:19:33;;;;;;;7.93;2.50;;;12.40;48.50;;;;;;5038727;28;20204;-88
2022/02/17 12:22:19;;;;;;;6.95;2.58;;;12.40;48.80;;;;;;5020349;28;20318;-88
2022/02/17 12:24:46;;;;;;;9.57;2.75;;;12.60;49.00;;;;;;5020441;28;20236;-88
2022/02/17 12:27:19;;;;;;;10.35;1.88;;;12.50;49.20;;;;;;5037800;28;20186;-88
2022/02/17 12:29:45;;;;;;;8.90;2.60;;;12.40;48.60;;;;;;5038455;28;20165;-88
2022/02/17 12:32:19;;;;;;;8.73;2.58;;;12.50;49.00;;;;;;5019789;28;20182;-88
2022/02/17 12:34:46;;;;;;;7.35;1.85;;;12.50;48.00;;;;;;5019341;28;20194;-88
2022/02/17 12:37:20;;;;;;;7.10;2.60;;;12.70;47.60;;;;;;5019423;28;20665;-88
2022/02/17 12:39:51;;;;;;;10.57;2.53;;;12.80;47.20;;;;;;5037438;28;20188;-88
2022/02/17 12:42:18;;;;;;;8.60;2.08;;;12.90;46.80;;;;;;5004534;28;20305;-88
2022/02/17 12:44:48;;;;;;;6.68;2.00;;;12.90;47.40;;;;;;5022080;28;20201;-88
2022/02/17 12:47:15;;;;;;;10.32;2.13;;;13.00;47.60;;;;;;5020934;28;20198;-87
2022/02/17 12:49:41;;;;;;;8.00;2.08;;;13.00;47.40;;;;;;5003607;28;20236;-88
2022/02/17 12:52:14;;;;;;;7.85;2.45;;;13.10;47.40;;;;;;5037660;28;20185;-89
2022/02/17 12:54:42;;;;;;;6.90;2.22;;;13.30;47.00;;;;;;5021171;28;20217;-87
2022/02/17 12:57:15;;;;;;;7.55;1.80;;;13.20;45.60;;;;;;5019931;28;20704;-88
2022/02/17 12:59:42;;;;;;;10.13;2.60;;;13.30;46.20;;;;;;5038014;28;20209;-88
2022/02/17 13:02:10;;;;;;;7.18;2.05;;;13.00;46.10;;;;;;5019083;28;20372;-88
2022/02/17 13:04:39;;;;;;;4.50;2.30;;;13.10;46.30;;;;;;5038035;28;20186;-87
2022/02/17 13:07:08;;;;;;;11.48;2.60;;;13.00;46.10;;;;;;5002976;28;20186;-88
2022/02/17 13:09:35;;;;;;;17.13;2.42;;;12.80;45.70;;;;;;5014754;28;20268;-87
2022/02/17 13:12:04;;;;;;;14.20;2.22;;;12.70;46.70;;;;;;5019764;28;20182;-88
2022/02/17 13:14:47;;;;;;;7.10;2.22;;;12.70;46.70;;;;;;5036718;28;20232;-87
2022/02/17 13:17:18;;;;;;;5.95;2.95;;;12.70;47.00;;;;;;5037277;28;20216;-87
2022/02/17 13:19:47;;;;;;;9.13;2.15;;;12.60;47.30;;;;;;5019675;28;20573;-89
2022/02/17 13:22:37;;;;;;;9.88;2.53;;;12.50;47.50;;;;;;5004344;28;20198;-87
2022/02/17 13:25:08;;;;;;;6.47;2.08;;;12.40;47.80;;;;;;4985685;28;20198;-88